createdAt,value
2023-02-08T00:02:20.187Z,101.63
2023-02-08T00:04:50.796Z,91.95
2023-02-08T00:07:19.719Z,115.47
2023-02-08T00:09:48.563Z,114.32
2023-02-08T00:12:17.513Z,98.32
2023-02-08T00:14:46.723Z,100.45
2023-02-08T00:17:15.529Z,91.75
2023-02-08T00:19:44.553Z,87.60
2023-02-08T00:22:14.998Z,82.50
2023-02-08T00:24:43.885Z,89.13
2023-02-08T00:27:12.774Z,90.65
2023-02-08T00:29:41.833Z,100.18
2023-02-08T00:32:11.780Z,152.50
2023-02-08T00:34:40.891Z,109.43
2023-02-08T00:37:11.423Z,109.10
2023-02-08T00:39:41.709Z,131.85
2023-02-08T00:42:30.367Z,117.97
2023-02-08T00:44:59.305Z,120.13
2023-02-08T00:47:28.480Z,114.57
2023-02-08T00:49:57.685Z,107.10
2023-02-08T00:52:26.602Z,102.97
2023-02-08T00:54:56.905Z,108.25
2023-02-08T00:57:26.241Z,113.18
2023-02-08T00:59:55.324Z,107.30
2023-02-08T01:02:24.287Z,115.22
2023-02-08T01:04:53.791Z,106.85
2023-02-08T01:07:22.867Z,109.05
2023-02-08T01:09:51.929Z,176.57
2023-02-08T01:12:22.509Z,181.90
2023-02-08T01:14:51.910Z,156.57
2023-02-08T01:17:20.806Z,108.10
2023-02-08T01:19:49.620Z,100.93
2023-02-08T01:22:20.496Z,89.15
2023-02-08T01:24:49.340Z,87.30
2023-02-08T01:27:18.086Z,85.25
2023-02-08T01:29:49.872Z,76.88
2023-02-08T01:32:18.674Z,65.30
2023-02-08T01:34:47.693Z,70.03
2023-02-08T01:37:16.525Z,70.68
2023-02-08T01:39:45.545Z,67.80
2023-02-08T01:42:15.999Z,72.10
2023-02-08T01:45:29.035Z,69.60
2023-02-08T01:48:07.714Z,82.57
2023-02-08T01:50:46.932Z,92.95
2023-02-08T01:53:16.181Z,100.75
2023-02-08T01:55:49.103Z,110.72
2023-02-08T01:58:20.417Z,142.38
2023-02-08T02:00:50.198Z,104.10
2023-02-08T02:03:22.490Z,118.60
2023-02-08T02:05:53.886Z,99.53
2023-02-08T02:08:23.054Z,114.13
2023-02-08T02:10:52.056Z,112.05
2023-02-08T02:13:24.748Z,107.25
2023-02-08T02:15:54.028Z,92.72
2023-02-08T02:18:28.147Z,103.43
2023-02-08T02:21:14.013Z,90.65
2023-02-08T02:24:20.560Z,89.88
2023-02-08T02:27:34.008Z,91.40
2023-02-08T02:30:43.369Z,76.15
2023-02-08T02:33:34.298Z,82.60
2023-02-08T02:36:11.507Z,84.13
2023-02-08T02:38:55.379Z,82.68
2023-02-08T02:41:51.578Z,80.45
2023-02-08T02:44:26.680Z,78.38
2023-02-08T02:47:04.190Z,85.20
2023-02-08T02:49:40.653Z,89.25
2023-02-08T02:52:13.177Z,109.57
2023-02-08T02:54:46.545Z,130.13
2023-02-08T02:57:19.065Z,130.38
2023-02-08T02:59:48.347Z,118.63
2023-02-08T03:02:17.852Z,101.80
2023-02-08T03:04:54.398Z,90.93
2023-02-08T03:07:50.460Z,99.43
2023-02-08T03:10:49.125Z,74.13
2023-02-08T03:13:29.124Z,65.85
2023-02-08T03:16:08.551Z,64.32
2023-02-08T03:18:43.030Z,68.40
2023-02-08T03:21:19.880Z,65.05
2023-02-08T03:23:59.047Z,61.72
2023-02-08T03:26:37.174Z,64.70
2023-02-08T03:29:36.980Z,69.50
2023-02-08T03:32:10.660Z,60.47
2023-02-08T03:34:47.652Z,67.13
2023-02-08T03:37:22.687Z,85.70
2023-02-08T03:39:56.634Z,79.30
2023-02-08T03:42:29.040Z,76.32
2023-02-08T03:45:02.272Z,70.03
2023-02-08T03:47:36.225Z,66.88
2023-02-08T03:50:09.870Z,66.80
2023-02-08T03:52:41.204Z,62.40
2023-02-08T03:55:14.964Z,61.20
2023-02-08T03:57:49.640Z,64.93
2023-02-08T04:00:20.090Z,66.05
2023-02-08T04:02:53.948Z,65.75
2023-02-08T04:05:24.301Z,63.92
2023-02-08T04:07:54.642Z,62.72
2023-02-08T04:10:23.712Z,66.55
2023-02-08T04:12:52.655Z,68.53
2023-02-08T04:15:22.203Z,70.55
2023-02-08T04:17:51.178Z,64.93
2023-02-08T04:20:20.234Z,70.13
2023-02-08T04:22:49.065Z,76.78
2023-02-08T04:25:19.694Z,64.78
2023-02-08T04:27:48.605Z,67.22
2023-02-08T04:30:17.515Z,67.13
2023-02-08T04:32:46.378Z,70.85
2023-02-08T04:35:15.348Z,68.57
2023-02-08T04:37:44.153Z,62.33
2023-02-08T04:40:13.712Z,77.68
2023-02-08T04:42:44.185Z,76.80
2023-02-08T04:45:13.856Z,79.20
2023-02-08T04:47:42.784Z,94.57
2023-02-08T04:50:11.727Z,70.57
2023-02-08T04:52:40.554Z,60.28
2023-02-08T04:55:10.122Z,55.88
2023-02-08T04:57:38.972Z,56.70
2023-02-08T05:00:10.575Z,57.00
2023-02-08T05:02:39.536Z,47.47
2023-02-08T05:05:08.638Z,48.63
2023-02-08T05:07:38.878Z,47.13
2023-02-08T05:10:08.516Z,52.22
2023-02-08T05:12:37.331Z,74.30
2023-02-08T05:15:09.858Z,66.38
2023-02-08T05:17:39.024Z,51.42
2023-02-08T05:20:08.473Z,65.53
2023-02-08T05:22:37.542Z,49.80
2023-02-08T05:25:07.120Z,61.03
2023-02-08T05:27:36.546Z,56.78
2023-02-08T05:30:06.825Z,77.97
2023-02-08T05:32:37.439Z,75.70
2023-02-08T05:35:07.083Z,81.35
2023-02-08T05:37:35.934Z,77.07
2023-02-08T05:40:05.370Z,83.68
2023-02-08T05:42:34.338Z,77.90
2023-02-08T05:45:03.246Z,89.07
2023-02-08T05:47:32.098Z,84.72
2023-02-08T05:50:02.382Z,75.75
2023-02-08T05:52:32.525Z,78.38
2023-02-08T05:55:01.512Z,80.68
2023-02-08T05:57:31.449Z,107.38
2023-02-08T06:00:00.810Z,105.97
2023-02-08T06:02:29.739Z,123.40
2023-02-08T06:04:58.587Z,119.03
2023-02-08T06:07:34.810Z,119.03
2023-02-08T06:10:04.522Z,125.80
2023-02-08T06:12:33.449Z,168.55
2023-02-08T06:15:02.268Z,139.40
2023-02-08T06:17:31.057Z,150.10
2023-02-08T06:19:59.979Z,140.98
2023-02-08T06:22:30.331Z,161.73
2023-02-08T06:25:00.113Z,112.20
2023-02-08T06:27:29.099Z,75.80
2023-02-08T06:29:59.855Z,72.55
2023-02-08T06:32:29.090Z,86.32
2023-02-08T06:34:58.553Z,96.78
2023-02-08T06:37:27.450Z,88.60
2023-02-08T06:39:58.013Z,88.60
2023-02-08T06:42:26.876Z,81.50
2023-02-08T06:44:56.168Z,78.30
2023-02-08T06:47:25.911Z,81.97
2023-02-08T06:49:54.927Z,81.68
2023-02-08T06:52:24.251Z,80.93
2023-02-08T06:54:53.678Z,85.72
2023-02-08T06:57:23.927Z,84.05
2023-02-08T06:59:54.068Z,75.63
2023-02-08T07:02:24.223Z,66.95
2023-02-08T07:04:54.675Z,73.50
2023-02-08T07:07:23.656Z,64.43
2023-02-08T07:09:52.487Z,65.47
2023-02-08T07:12:21.843Z,86.57
2023-02-08T07:14:52.605Z,74.85
2023-02-08T07:17:21.572Z,80.40
2023-02-08T07:19:50.943Z,74.03
2023-02-08T07:22:19.760Z,74.03
2023-02-08T07:24:48.610Z,68.68
2023-02-08T07:27:17.481Z,66.43
2023-02-08T07:29:46.277Z,73.97
2023-02-08T07:32:16.572Z,65.60
2023-02-08T07:34:46.666Z,74.45
2023-02-08T07:37:16.172Z,66.32
2023-02-08T07:39:45.142Z,72.43
2023-02-08T07:42:13.967Z,86.60
2023-02-08T07:44:54.844Z,95.15
2023-02-08T07:47:25.157Z,87.80
2023-02-08T07:49:54.127Z,101.65
2023-02-08T07:52:22.980Z,104.00
2023-02-08T07:54:51.771Z,107.18
2023-02-08T07:57:21.343Z,105.37
2023-02-08T07:59:51.609Z,115.47
2023-02-08T08:02:21.545Z,102.25
2023-02-08T08:04:54.262Z,98.67
2023-02-08T08:07:23.244Z,87.97
2023-02-08T08:09:52.052Z,88.03
2023-02-08T08:12:21.073Z,107.20
2023-02-08T08:14:50.035Z,136.20
2023-02-08T08:17:19.407Z,122.40
2023-02-08T08:19:48.283Z,141.47
2023-02-08T08:22:19.114Z,138.00
2023-02-08T08:24:48.146Z,144.23
2023-02-08T08:27:16.924Z,147.43
2023-02-08T08:29:45.918Z,172.77
2023-02-08T08:32:14.808Z,166.03
2023-02-08T08:34:43.888Z,178.67
2023-02-08T08:37:13.507Z,174.60
2023-02-08T08:39:43.764Z,177.70
2023-02-08T08:42:12.839Z,175.07
2023-02-08T08:44:41.860Z,177.83
2023-02-08T08:47:11.112Z,197.43
2023-02-08T08:49:40.756Z,197.00
2023-02-08T08:52:09.768Z,223.60
2023-02-08T08:54:38.734Z,198.90
2023-02-08T08:57:09.402Z,170.33
2023-02-08T08:59:38.362Z,150.07
2023-02-08T09:02:07.169Z,87.67
2023-02-08T09:04:36.322Z,123.33
2023-02-08T09:07:05.100Z,146.73
2023-02-08T09:09:33.895Z,139.77
2023-02-08T09:12:02.964Z,116.50
2023-02-08T09:14:33.235Z,105.90
2023-02-08T09:17:02.081Z,108.40
2023-02-08T09:19:30.851Z,89.07
2023-02-08T09:22:00.823Z,76.70
2023-02-08T09:24:32.432Z,86.20
2023-02-08T09:27:01.384Z,69.43
2023-02-08T09:29:30.412Z,70.33
2023-02-08T09:32:00.992Z,77.43
2023-02-08T09:34:29.988Z,67.70
2023-02-08T09:36:58.947Z,55.77
2023-02-08T09:39:30.982Z,45.83
2023-02-08T09:42:30.303Z,43.03
2023-02-08T09:45:14.190Z,41.03
2023-02-08T09:47:51.693Z,42.83
2023-02-08T09:50:28.835Z,40.40
2023-02-08T09:53:07.149Z,35.93
2023-02-08T09:55:39.889Z,31.33
2023-02-08T09:58:20.777Z,35.63
2023-02-08T10:00:51.860Z,37.00
2023-02-08T10:03:41.629Z,42.03
2023-02-08T10:06:14.430Z,38.60
2023-02-08T10:08:44.850Z,90.57
2023-02-08T10:11:28.016Z,53.87
2023-02-08T10:14:09.780Z,54.40
2023-02-08T10:16:52.380Z,51.63
2023-02-08T10:19:39.990Z,60.27
2023-02-08T10:22:24.443Z,69.20
2023-02-08T10:25:17.508Z,73.33
2023-02-08T10:27:56.242Z,63.77
2023-02-08T10:30:38.758Z,64.73
2023-02-08T10:33:34.111Z,62.53
2023-02-08T10:36:05.063Z,51.33
2023-02-08T10:38:45.927Z,51.77
2023-02-08T10:41:21.669Z,52.93
2023-02-08T10:43:56.041Z,50.60
2023-02-08T10:46:30.929Z,51.30
2023-02-08T10:49:08.450Z,58.20
2023-02-08T10:51:39.028Z,68.53
2023-02-08T10:54:08.005Z,61.77
2023-02-08T10:56:42.397Z,52.07
2023-02-08T10:59:19.156Z,50.27
2023-02-08T11:01:49.997Z,49.43
2023-02-08T11:04:19.462Z,47.50
2023-02-08T11:06:50.863Z,54.10
2023-02-08T11:09:28.029Z,50.40
2023-02-08T11:11:58.049Z,50.90
2023-02-08T11:14:45.669Z,55.63
2023-02-08T11:17:28.531Z,50.97
2023-02-08T11:19:58.406Z,48.60
2023-02-08T11:22:32.520Z,55.37
2023-02-08T11:25:03.452Z,88.60
2023-02-08T11:27:34.758Z,67.43
2023-02-08T11:30:26.510Z,69.77
2023-02-08T11:33:19.214Z,69.70
2023-02-08T11:35:57.521Z,97.53
2023-02-08T11:38:31.290Z,98.33
2023-02-08T11:41:06.685Z,96.57
2023-02-08T11:43:40.922Z,106.63
2023-02-08T11:46:12.500Z,153.23
2023-02-08T11:48:46.630Z,136.90
2023-02-08T11:51:26.058Z,110.70
2023-02-08T11:53:57.395Z,125.23
2023-02-08T11:56:28.972Z,106.67
2023-02-08T11:59:00.936Z,81.97
2023-02-08T12:01:38.867Z,100.23
2023-02-08T12:04:12.199Z,113.17
2023-02-08T12:07:15.245Z,112.47
2023-02-08T12:10:19.232Z,125.73
2023-02-08T12:13:01.489Z,148.23
2023-02-08T12:15:57.914Z,102.50
2023-02-08T12:18:46.822Z,110.83
2023-02-08T12:21:19.711Z,127.00
2023-02-08T12:24:01.440Z,94.80
2023-02-08T12:26:58.570Z,93.50
2023-02-08T12:29:47.309Z,97.17
2023-02-08T12:32:42.954Z,114.30
2023-02-08T12:35:45.716Z,157.03
2023-02-08T12:38:49.433Z,179.00
2023-02-08T12:41:24.802Z,176.77
2023-02-08T12:44:06.201Z,148.27
2023-02-08T12:47:00.157Z,125.10
2023-02-08T12:49:40.985Z,109.67
2023-02-08T12:52:25.726Z,104.33
2023-02-08T12:54:59.776Z,121.43
2023-02-08T12:57:32.077Z,128.30
2023-02-08T13:00:07.454Z,166.90
2023-02-08T13:02:45.164Z,147.67
2023-02-08T13:05:20.490Z,164.40
2023-02-08T13:08:20.551Z,105.23
2023-02-08T13:11:19.824Z,108.40
2023-02-08T13:14:06.689Z,120.40
2023-02-08T13:17:04.085Z,148.90
2023-02-08T13:20:00.049Z,167.30
2023-02-08T13:22:42.277Z,144.43
2023-02-08T13:25:26.998Z,205.30
2023-02-08T13:28:06.918Z,195.60
2023-02-08T13:31:02.923Z,210.43
2023-02-08T13:34:01.384Z,215.30
2023-02-08T13:36:37.450Z,230.40
2023-02-08T13:39:15.999Z,131.00
2023-02-08T13:42:01.699Z,100.78
2023-02-08T13:44:39.174Z,106.95
2023-02-08T13:47:36.196Z,139.55
2023-02-08T13:50:45.541Z,161.77
2023-02-08T13:53:23.893Z,161.70
2023-02-08T13:56:03.784Z,179.80
2023-02-08T13:59:18.654Z,230.95
2023-02-08T14:02:24.662Z,242.38
2023-02-08T14:05:56.705Z,224.18
2023-02-08T14:08:37.312Z,197.30
2023-02-08T14:11:17.578Z,192.53
2023-02-08T14:13:57.275Z,180.70
2023-02-08T14:16:39.391Z,162.93
2023-02-08T14:19:34.526Z,124.28
2023-02-08T14:22:06.460Z,87.07
2023-02-08T14:24:43.938Z,94.72
2023-02-08T14:27:22.074Z,38.70
2023-02-08T14:29:59.708Z,36.30
2023-02-08T14:32:31.774Z,62.17
2023-02-08T14:35:04.277Z,93.35
2023-02-08T14:37:35.069Z,89.57
2023-02-08T14:40:42.861Z,80.50
2023-02-08T14:43:32.143Z,88.93
2023-02-08T14:46:40.023Z,28.67
2023-02-08T14:49:12.691Z,74.70
2023-02-08T14:51:47.140Z,103.35
2023-02-08T14:54:26.642Z,83.17
2023-02-08T14:57:03.224Z,77.97
2023-02-08T14:59:38.974Z,68.27
2023-02-08T15:02:20.967Z,102.63
2023-02-08T15:05:09.765Z,104.57
2023-02-08T15:08:09.691Z,111.77
2023-02-08T15:10:51.075Z,116.53
2023-02-08T15:13:36.702Z,100.88
2023-02-08T15:16:24.080Z,111.97
2023-02-08T15:19:06.474Z,105.38
2023-02-08T15:21:39.384Z,128.30
2023-02-08T15:24:18.472Z,127.55
2023-02-08T15:26:55.135Z,121.38
2023-02-08T15:29:44.425Z,112.87
2023-02-08T15:32:24.447Z,47.47
2023-02-08T15:34:58.815Z,41.53
2023-02-08T15:37:31.156Z,51.13
2023-02-08T15:40:13.002Z,45.87
2023-02-08T15:42:48.619Z,39.60
2023-02-08T15:45:31.015Z,35.87
2023-02-08T15:48:02.895Z,40.30
2023-02-08T15:50:33.621Z,55.83
2023-02-08T15:53:04.677Z,76.97
2023-02-08T15:55:37.320Z,58.77
2023-02-08T15:58:09.429Z,112.43
2023-02-08T16:00:39.403Z,92.53
2023-02-08T16:03:17.914Z,114.53
2023-02-08T16:05:51.455Z,139.83
2023-02-08T16:08:24.823Z,123.05
2023-02-08T16:10:57.418Z,140.57
2023-02-08T16:13:28.841Z,152.70
2023-02-08T16:16:08.559Z,121.30
2023-02-08T16:18:46.311Z,117.30
2023-02-08T16:21:27.484Z,177.30
2023-02-08T16:23:59.232Z,153.43
2023-02-08T16:26:29.810Z,134.25
2023-02-08T16:29:00.862Z,158.70
2023-02-08T16:31:32.321Z,159.05
2023-02-08T16:34:06.082Z,153.68
2023-02-08T16:36:39.419Z,178.35
2023-02-08T16:39:40.019Z,88.53
2023-02-08T16:42:23.998Z,129.27
2023-02-08T16:45:15.699Z,171.90
2023-02-08T16:47:47.944Z,95.78
2023-02-08T16:50:21.424Z,130.88
2023-02-08T16:52:54.391Z,112.30
2023-02-08T16:55:27.872Z,121.40
2023-02-08T16:57:59.715Z,137.27
2023-02-08T17:00:31.513Z,129.70
2023-02-08T17:03:01.316Z,140.98
2023-02-08T17:05:34.424Z,199.48
2023-02-08T17:08:04.673Z,187.18
2023-02-08T17:10:34.720Z,206.63
2023-02-08T17:13:19.389Z,206.35
2023-02-08T17:15:51.077Z,200.65
2023-02-08T17:18:20.533Z,204.80
2023-02-08T17:20:57.930Z,165.70
2023-02-08T17:23:27.007Z,142.90
2023-02-08T17:25:55.962Z,108.10
2023-02-08T17:28:24.976Z,91.95
2023-02-08T17:30:54.565Z,77.47
2023-02-08T17:33:30.739Z,92.53
2023-02-08T17:36:01.905Z,122.13
2023-02-08T17:38:41.273Z,123.30
2023-02-08T17:41:27.132Z,138.93
2023-02-08T17:44:14.901Z,150.85
2023-02-08T17:46:48.420Z,125.03
2023-02-08T17:49:19.471Z,96.07
2023-02-08T17:51:58.727Z,68.25
2023-02-08T17:54:27.811Z,86.13
2023-02-08T17:56:58.800Z,93.40
2023-02-08T17:59:28.056Z,114.85
2023-02-08T18:01:57.301Z,119.40
2023-02-08T18:04:27.115Z,111.20
2023-02-08T18:07:01.148Z,107.88
2023-02-08T18:09:30.203Z,90.68
2023-02-08T18:11:59.316Z,66.25
2023-02-08T18:14:28.336Z,65.28
2023-02-08T18:16:58.553Z,78.30
2023-02-08T18:19:33.323Z,80.22
2023-02-08T18:22:04.750Z,76.80
2023-02-08T18:24:34.403Z,81.80
2023-02-08T18:27:06.476Z,91.90
2023-02-08T18:29:35.348Z,110.90
2023-02-08T18:32:05.304Z,120.63
2023-02-08T18:34:34.678Z,64.07
2023-02-08T18:37:05.020Z,74.17
2023-02-08T18:39:33.879Z,65.63
2023-02-08T18:42:02.908Z,76.20
2023-02-08T18:44:31.781Z,64.40
2023-02-08T18:47:00.642Z,66.97
2023-02-08T18:49:30.182Z,64.15
2023-02-08T18:51:59.160Z,63.85
2023-02-08T18:54:29.657Z,72.85
2023-02-08T18:57:00.377Z,67.77
2023-02-08T18:59:29.873Z,69.33
2023-02-08T19:01:59.240Z,67.57
2023-02-08T19:04:28.172Z,88.07
2023-02-08T19:06:57.144Z,83.30
2023-02-08T19:09:42.698Z,101.87
2023-02-08T19:12:25.095Z,95.07
2023-02-08T19:14:55.255Z,85.37
2023-02-08T19:17:26.044Z,62.10
2023-02-08T19:19:57.381Z,64.63
2023-02-08T19:22:33.241Z,62.75
2023-02-08T19:25:04.907Z,49.00
2023-02-08T19:27:39.070Z,60.78
2023-02-08T19:30:16.247Z,61.90
2023-02-08T19:32:47.224Z,54.97
2023-02-08T19:35:43.140Z,47.30
2023-02-08T19:38:33.517Z,52.27
2023-02-08T19:41:08.376Z,58.10
2023-02-08T19:43:39.576Z,72.30
2023-02-08T19:46:13.970Z,66.40
2023-02-08T19:48:46.281Z,69.97
2023-02-08T19:51:18.197Z,61.60
2023-02-08T19:53:51.639Z,67.17
2023-02-08T19:56:47.361Z,63.53
2023-02-08T19:59:19.469Z,63.90
2023-02-08T20:01:48.850Z,69.95
2023-02-08T20:04:18.159Z,76.03
2023-02-08T20:06:47.376Z,76.68
2023-02-08T20:09:17.988Z,90.87
2023-02-08T20:11:57.918Z,96.68
2023-02-08T20:14:29.293Z,115.75
2023-02-08T20:16:58.190Z,77.00
2023-02-08T20:19:28.241Z,93.57
2023-02-08T20:21:57.502Z,98.82
2023-02-08T20:24:26.450Z,100.40
2023-02-08T20:26:56.956Z,84.43
2023-02-08T20:29:28.001Z,88.75
2023-02-08T20:31:58.287Z,76.57
2023-02-08T20:34:27.264Z,79.00
2023-02-08T20:37:11.636Z,69.50
2023-02-08T20:39:40.624Z,64.47
2023-02-08T20:42:11.567Z,58.70
2023-02-08T20:44:40.476Z,74.10
2023-02-08T20:47:10.915Z,66.13
2023-02-08T20:49:40.448Z,62.58
2023-02-08T20:52:09.282Z,64.88
2023-02-08T20:54:38.919Z,71.13
2023-02-08T20:57:11.130Z,67.88
2023-02-08T20:59:41.646Z,66.25
2023-02-08T21:02:16.974Z,65.05
2023-02-08T21:04:46.119Z,69.57
2023-02-08T21:07:17.101Z,70.95
2023-02-08T21:09:46.796Z,64.28
2023-02-08T21:12:15.843Z,72.80
2023-02-08T21:14:46.547Z,79.82
2023-02-08T21:17:15.605Z,86.20
2023-02-08T21:19:44.947Z,81.85
2023-02-08T21:22:14.086Z,94.60
2023-02-08T21:24:42.946Z,101.85
2023-02-08T21:27:13.074Z,91.20
2023-02-08T21:29:42.073Z,99.07
2023-02-08T21:32:12.861Z,102.07
2023-02-08T21:34:42.060Z,102.88
2023-02-08T21:37:10.864Z,100.70
2023-02-08T21:39:39.697Z,93.47
2023-02-08T21:42:08.800Z,90.38
2023-02-08T21:44:37.637Z,91.93
2023-02-08T21:47:06.574Z,86.43
2023-02-08T21:49:54.467Z,83.77
2023-02-08T21:52:45.632Z,79.20
2023-02-08T21:55:14.593Z,83.85
2023-02-08T21:57:43.467Z,84.00
2023-02-08T22:00:14.589Z,84.87
2023-02-08T22:02:47.640Z,109.70
2023-02-08T22:05:19.669Z,101.63
2023-02-08T22:07:52.287Z,96.93
2023-02-08T22:10:24.269Z,103.30
2023-02-08T22:12:55.337Z,96.45
2023-02-08T22:15:25.844Z,96.45
2023-02-08T22:18:13.818Z,118.72
2023-02-08T22:20:45.425Z,112.23
2023-02-08T22:23:14.794Z,162.63
2023-02-08T22:25:43.823Z,156.07
2023-02-08T22:28:14.053Z,109.17
2023-02-08T22:30:52.572Z,115.63
2023-02-08T22:33:23.807Z,121.17
2023-02-08T22:35:55.404Z,120.72
2023-02-08T22:38:25.582Z,129.03
2023-02-08T22:40:54.597Z,122.60
2023-02-08T22:43:23.412Z,127.55
2023-02-08T22:45:58.839Z,131.02
2023-02-08T22:48:46.228Z,104.15
2023-02-08T22:51:18.505Z,112.57
2023-02-08T22:53:47.800Z,99.40
2023-02-08T22:56:18.172Z,108.13
2023-02-08T22:58:46.985Z,116.03
2023-02-08T23:01:18.240Z,119.32
2023-02-08T23:03:47.203Z,109.43
2023-02-08T23:06:19.132Z,123.30
2023-02-08T23:08:48.491Z,136.63
2023-02-08T23:11:18.164Z,138.15
2023-02-08T23:13:47.558Z,144.30
2023-02-08T23:16:18.260Z,147.20
2023-02-08T23:18:47.210Z,125.67
2023-02-08T23:21:19.576Z,145.65
2023-02-08T23:23:49.661Z,175.80
2023-02-08T23:26:20.843Z,143.23
2023-02-08T23:28:52.334Z,137.65
2023-02-08T23:31:22.190Z,146.17
2023-02-08T23:33:51.854Z,119.80
2023-02-08T23:36:24.195Z,118.53
2023-02-08T23:38:54.544Z,125.43
2023-02-08T23:41:25.122Z,119.33
2023-02-08T23:43:54.463Z,124.53
2023-02-08T23:46:24.582Z,131.52
2023-02-08T23:48:53.817Z,125.97
2023-02-08T23:51:25.718Z,114.63
2023-02-08T23:53:55.795Z,120.80
2023-02-08T23:56:27.153Z,153.60
2023-02-08T23:58:58.310Z,146.93
